sensor_id;sensor_type;location;lat;lon;timestamp;P1;durP1;ratioP1;P2;durP2;ratioP2
13048;SDS011;6591;51.446;5.404;2023-04-12T00:01:03;2.10;;;1.10;;
13048;SDS011;6591;51.446;5.404;2023-04-12T00:03:31;4.33;;;1.37;;
13048;SDS011;6591;51.446;5.404;2023-04-12T00:06:00;2.70;;;1.50;;
13048;SDS011;6591;51.446;5.404;2023-04-12T00:08:28;4.23;;;1.90;;
13048;SDS011;6591;51.446;5.404;2023-04-12T00:11:01;1.90;;;1.10;;
13048;SDS011;6591;51.446;5.404;2023-04-12T00:13:29;1.57;;;1.10;;
13048;SDS011;6591;51.446;5.404;2023-04-12T00:15:56;4.23;;;1.70;;
13048;SDS011;6591;51.446;5.404;2023-04-12T00:18:24;4.30;;;1.13;;
13048;SDS011;6591;51.446;5.404;2023-04-12T00:20:51;2.50;;;1.30;;
13048;SDS011;6591;51.446;5.404;2023-04-12T00:23:20;3.17;;;1.30;;
13048;SDS011;6591;51.446;5.404;2023-04-12T00:25:47;3.13;;;1.20;;
13048;SDS011;6591;51.446;5.404;2023-04-12T00:28:14;3.87;;;1.47;;
13048;SDS011;6591;51.446;5.404;2023-04-12T00:30:42;1.67;;;1.20;;
13048;SDS011;6591;51.446;5.404;2023-04-12T00:33:11;2.90;;;1.50;;
13048;SDS011;6591;51.446;5.404;2023-04-12T00:35:40;1.33;;;1.07;;
13048;SDS011;6591;51.446;5.404;2023-04-12T00:38:07;2.60;;;1.17;;
13048;SDS011;6591;51.446;5.404;2023-04-12T00:40:42;3.80;;;1.67;;
13048;SDS011;6591;51.446;5.404;2023-04-12T00:43:10;3.37;;;1.53;;
13048;SDS011;6591;51.446;5.404;2023-04-12T00:45:41;1.97;;;1.33;;
13048;SDS011;6591;51.446;5.404;2023-04-12T00:48:08;2.00;;;1.33;;
13048;SDS011;6591;51.446;5.404;2023-04-12T00:50:36;2.93;;;1.33;;
13048;SDS011;6591;51.446;5.404;2023-04-12T00:53:10;3.73;;;1.30;;
13048;SDS011;6591;51.446;5.404;2023-04-12T00:55:43;2.83;;;1.40;;
13048;SDS011;6591;51.446;5.404;2023-04-12T00:58:12;3.43;;;1.43;;
13048;SDS011;6591;51.446;5.404;2023-04-12T01:00:41;2.60;;;1.33;;
13048;SDS011;6591;51.446;5.404;2023-04-12T01:03:18;2.37;;;1.30;;
13048;SDS011;6591;51.446;5.404;2023-04-12T01:11:40;3.50;;;1.30;;
13048;SDS011;6591;51.446;5.404;2023-04-12T01:17:29;4.43;;;1.50;;
13048;SDS011;6591;51.446;5.404;2023-04-12T01:25:48;3.53;;;1.60;;
13048;SDS011;6591;51.446;5.404;2023-04-12T01:28:48;3.17;;;1.37;;
13048;SDS011;6591;51.446;5.404;2023-04-12T01:31:20;2.03;;;1.17;;
13048;SDS011;6591;51.446;5.404;2023-04-12T01:33:49;2.03;;;1.30;;
13048;SDS011;6591;51.446;5.404;2023-04-12T01:36:21;1.80;;;1.30;;
13048;SDS011;6591;51.446;5.404;2023-04-12T01:38:52;2.47;;;1.40;;
13048;SDS011;6591;51.446;5.404;2023-04-12T01:41:21;3.30;;;1.23;;
13048;SDS011;6591;51.446;5.404;2023-04-12T01:43:48;2.43;;;1.57;;
13048;SDS011;6591;51.446;5.404;2023-04-12T01:46:17;3.23;;;1.50;;
13048;SDS011;6591;51.446;5.404;2023-04-12T01:48:52;3.37;;;1.60;;
13048;SDS011;6591;51.446;5.404;2023-04-12T01:54:32;2.53;;;1.40;;
13048;SDS011;6591;51.446;5.404;2023-04-12T01:57:04;2.87;;;1.50;;
13048;SDS011;6591;51.446;5.404;2023-04-12T01:59:35;2.43;;;1.20;;
13048;SDS011;6591;51.446;5.404;2023-04-12T02:02:08;1.93;;;1.20;;
13048;SDS011;6591;51.446;5.404;2023-04-12T02:04:37;2.50;;;1.30;;
13048;SDS011;6591;51.446;5.404;2023-04-12T02:07:06;2.87;;;1.37;;
13048;SDS011;6591;51.446;5.404;2023-04-12T02:09:35;1.67;;;1.07;;
13048;SDS011;6591;51.446;5.404;2023-04-12T02:12:04;2.57;;;1.10;;
13048;SDS011;6591;51.446;5.404;2023-04-12T02:14:34;4.50;;;1.27;;
13048;SDS011;6591;51.446;5.404;2023-04-12T02:17:02;2.37;;;1.63;;
13048;SDS011;6591;51.446;5.404;2023-04-12T02:19:31;2.80;;;1.20;;
13048;SDS011;6591;51.446;5.404;2023-04-12T02:21:58;3.03;;;1.20;;
13048;SDS011;6591;51.446;5.404;2023-04-12T02:24:27;2.97;;;1.43;;
13048;SDS011;6591;51.446;5.404;2023-04-12T02:26:54;2.30;;;1.30;;
13048;SDS011;6591;51.446;5.404;2023-04-12T02:29:25;2.73;;;1.10;;
13048;SDS011;6591;51.446;5.404;2023-04-12T02:31:52;2.07;;;1.13;;
13048;SDS011;6591;51.446;5.404;2023-04-12T02:34:22;2.67;;;1.10;;
13048;SDS011;6591;51.446;5.404;2023-04-12T02:36:56;2.93;;;1.23;;
13048;SDS011;6591;51.446;5.404;2023-04-12T02:39:24;1.40;;;1.10;;
13048;SDS011;6591;51.446;5.404;2023-04-12T02:41:51;3.40;;;1.40;;
13048;SDS011;6591;51.446;5.404;2023-04-12T02:44:18;1.17;;;1.03;;
13048;SDS011;6591;51.446;5.404;2023-04-12T02:47:02;2.07;;;1.07;;
13048;SDS011;6591;51.446;5.404;2023-04-12T02:49:31;4.13;;;1.30;;
13048;SDS011;6591;51.446;5.404;2023-04-12T02:51:59;1.53;;;1.07;;
13048;SDS011;6591;51.446;5.404;2023-04-12T02:54:35;1.87;;;1.10;;
13048;SDS011;6591;51.446;5.404;2023-04-12T02:57:03;1.60;;;1.10;;
13048;SDS011;6591;51.446;5.404;2023-04-12T02:59:39;1.30;;;0.87;;
13048;SDS011;6591;51.446;5.404;2023-04-12T03:02:14;2.83;;;1.13;;
13048;SDS011;6591;51.446;5.404;2023-04-12T03:04:42;1.87;;;1.10;;
13048;SDS011;6591;51.446;5.404;2023-04-12T03:07:17;1.70;;;1.00;;
13048;SDS011;6591;51.446;5.404;2023-04-12T03:09:51;1.97;;;1.03;;
13048;SDS011;6591;51.446;5.404;2023-04-12T03:12:21;1.33;;;0.90;;
13048;SDS011;6591;51.446;5.404;2023-04-12T03:15:02;2.90;;;0.90;;
13048;SDS011;6591;51.446;5.404;2023-04-12T03:17:30;1.40;;;0.90;;
13048;SDS011;6591;51.446;5.404;2023-04-12T03:20:04;2.27;;;1.00;;
13048;SDS011;6591;51.446;5.404;2023-04-12T03:22:38;2.50;;;0.93;;
13048;SDS011;6591;51.446;5.404;2023-04-12T03:25:07;1.70;;;1.10;;
13048;SDS011;6591;51.446;5.404;2023-04-12T03:27:40;1.73;;;1.07;;
13048;SDS011;6591;51.446;5.404;2023-04-12T03:30:07;2.93;;;0.93;;
13048;SDS011;6591;51.446;5.404;2023-04-12T03:32:39;1.57;;;1.00;;
13048;SDS011;6591;51.446;5.404;2023-04-12T03:35:08;1.97;;;0.93;;
13048;SDS011;6591;51.446;5.404;2023-04-12T03:37:40;2.37;;;1.07;;
13048;SDS011;6591;51.446;5.404;2023-04-12T03:40:10;1.67;;;1.00;;
13048;SDS011;6591;51.446;5.404;2023-04-12T03:42:41;2.80;;;1.10;;
13048;SDS011;6591;51.446;5.404;2023-04-12T03:45:13;1.13;;;0.93;;
13048;SDS011;6591;51.446;5.404;2023-04-12T03:47:45;1.83;;;1.00;;
13048;SDS011;6591;51.446;5.404;2023-04-12T03:50:16;2.37;;;1.00;;
13048;SDS011;6591;51.446;5.404;2023-04-12T03:52:51;2.60;;;0.83;;
13048;SDS011;6591;51.446;5.404;2023-04-12T03:55:18;2.50;;;1.00;;
13048;SDS011;6591;51.446;5.404;2023-04-12T03:57:49;2.33;;;0.93;;
13048;SDS011;6591;51.446;5.404;2023-04-12T04:00:18;3.60;;;1.10;;
13048;SDS011;6591;51.446;5.404;2023-04-12T04:03:01;1.30;;;0.80;;
13048;SDS011;6591;51.446;5.404;2023-04-12T04:05:38;2.17;;;0.90;;
13048;SDS011;6591;51.446;5.404;2023-04-12T04:08:05;1.20;;;0.90;;
13048;SDS011;6591;51.446;5.404;2023-04-12T04:10:46;1.87;;;0.90;;
13048;SDS011;6591;51.446;5.404;2023-04-12T04:13:13;2.73;;;1.00;;
13048;SDS011;6591;51.446;5.404;2023-04-12T04:15:40;1.60;;;0.97;;
13048;SDS011;6591;51.446;5.404;2023-04-12T04:18:09;2.23;;;0.90;;
13048;SDS011;6591;51.446;5.404;2023-04-12T04:20:36;1.50;;;1.10;;
13048;SDS011;6591;51.446;5.404;2023-04-12T04:23:03;1.80;;;1.00;;
13048;SDS011;6591;51.446;5.404;2023-04-12T04:25:32;1.10;;;1.00;;
13048;SDS011;6591;51.446;5.404;2023-04-12T04:28:05;1.90;;;0.90;;
13048;SDS011;6591;51.446;5.404;2023-04-12T04:30:33;1.20;;;0.73;;
13048;SDS011;6591;51.446;5.404;2023-04-12T04:33:07;1.27;;;0.90;;
13048;SDS011;6591;51.446;5.404;2023-04-12T04:35:37;1.53;;;1.20;;
13048;SDS011;6591;51.446;5.404;2023-04-12T04:38:20;1.90;;;1.20;;
13048;SDS011;6591;51.446;5.404;2023-04-12T04:40:57;1.33;;;0.87;;
13048;SDS011;6591;51.446;5.404;2023-04-12T04:43:41;1.87;;;0.80;;
13048;SDS011;6591;51.446;5.404;2023-04-12T04:46:12;1.40;;;1.10;;
13048;SDS011;6591;51.446;5.404;2023-04-12T04:48:39;3.33;;;1.37;;
13048;SDS011;6591;51.446;5.404;2023-04-12T04:51:06;2.47;;;1.20;;
13048;SDS011;6591;51.446;5.404;2023-04-12T04:53:33;1.53;;;0.90;;
13048;SDS011;6591;51.446;5.404;2023-04-12T04:56:02;1.37;;;0.90;;
13048;SDS011;6591;51.446;5.404;2023-04-12T04:58:33;1.33;;;1.03;;
13048;SDS011;6591;51.446;5.404;2023-04-12T05:01:00;1.73;;;1.10;;
13048;SDS011;6591;51.446;5.404;2023-04-12T05:03:28;1.33;;;1.10;;
13048;SDS011;6591;51.446;5.404;2023-04-12T05:05:58;1.43;;;1.10;;
13048;SDS011;6591;51.446;5.404;2023-04-12T05:08:29;1.63;;;1.00;;
13048;SDS011;6591;51.446;5.404;2023-04-12T05:10:57;1.80;;;1.20;;
13048;SDS011;6591;51.446;5.404;2023-04-12T05:13:27;1.80;;;1.10;;
13048;SDS011;6591;51.446;5.404;2023-04-12T05:15:54;1.90;;;1.03;;
13048;SDS011;6591;51.446;5.404;2023-04-12T05:18:21;1.00;;;0.80;;
13048;SDS011;6591;51.446;5.404;2023-04-12T05:20:48;2.40;;;0.90;;
13048;SDS011;6591;51.446;5.404;2023-04-12T05:23:16;1.27;;;1.07;;
13048;SDS011;6591;51.446;5.404;2023-04-12T05:25:43;1.33;;;0.83;;
13048;SDS011;6591;51.446;5.404;2023-04-12T05:28:14;2.67;;;1.40;;
13048;SDS011;6591;51.446;5.404;2023-04-12T05:30:43;2.40;;;1.20;;
13048;SDS011;6591;51.446;5.404;2023-04-12T05:33:14;2.03;;;1.10;;
13048;SDS011;6591;51.446;5.404;2023-04-12T05:35:45;2.03;;;1.37;;
13048;SDS011;6591;51.446;5.404;2023-04-12T05:38:12;1.70;;;1.10;;
13048;SDS011;6591;51.446;5.404;2023-04-12T05:40:40;1.90;;;1.10;;
13048;SDS011;6591;51.446;5.404;2023-04-12T05:43:11;1.37;;;0.93;;
13048;SDS011;6591;51.446;5.404;2023-04-12T05:45:39;1.07;;;0.90;;
13048;SDS011;6591;51.446;5.404;2023-04-12T05:48:07;1.83;;;1.10;;
13048;SDS011;6591;51.446;5.404;2023-04-12T05:50:35;1.07;;;0.80;;
13048;SDS011;6591;51.446;5.404;2023-04-12T05:53:03;1.53;;;1.10;;
13048;SDS011;6591;51.446;5.404;2023-04-12T05:55:32;1.70;;;1.10;;
13048;SDS011;6591;51.446;5.404;2023-04-12T05:58:03;2.70;;;1.33;;
13048;SDS011;6591;51.446;5.404;2023-04-12T06:00:30;1.10;;;1.00;;
13048;SDS011;6591;51.446;5.404;2023-04-12T06:02:57;1.10;;;1.00;;
13048;SDS011;6591;51.446;5.404;2023-04-12T06:05:24;1.33;;;0.90;;
13048;SDS011;6591;51.446;5.404;2023-04-12T06:07:52;2.13;;;1.13;;
13048;SDS011;6591;51.446;5.404;2023-04-12T06:10:19;1.40;;;0.80;;
13048;SDS011;6591;51.446;5.404;2023-04-12T06:12:49;1.77;;;0.90;;
13048;SDS011;6591;51.446;5.404;2023-04-12T06:15:18;1.23;;;0.90;;
13048;SDS011;6591;51.446;5.404;2023-04-12T06:17:51;1.60;;;1.10;;
13048;SDS011;6591;51.446;5.404;2023-04-12T06:20:18;1.53;;;0.80;;
13048;SDS011;6591;51.446;5.404;2023-04-12T06:22:45;1.70;;;0.93;;
13048;SDS011;6591;51.446;5.404;2023-04-12T06:25:15;1.70;;;1.00;;
13048;SDS011;6591;51.446;5.404;2023-04-12T06:27:45;2.40;;;1.10;;
13048;SDS011;6591;51.446;5.404;2023-04-12T06:30:14;2.87;;;1.10;;
13048;SDS011;6591;51.446;5.404;2023-04-12T06:32:42;2.97;;;1.10;;
13048;SDS011;6591;51.446;5.404;2023-04-12T06:35:09;1.90;;;1.03;;
13048;SDS011;6591;51.446;5.404;2023-04-12T06:37:37;1.60;;;1.27;;
13048;SDS011;6591;51.446;5.404;2023-04-12T06:40:04;1.40;;;1.10;;
13048;SDS011;6591;51.446;5.404;2023-04-12T06:42:32;1.17;;;0.90;;
13048;SDS011;6591;51.446;5.404;2023-04-12T06:44:59;1.37;;;1.00;;
13048;SDS011;6591;51.446;5.404;2023-04-12T06:47:26;1.23;;;1.00;;
13048;SDS011;6591;51.446;5.404;2023-04-12T06:49:53;1.50;;;1.03;;
13048;SDS011;6591;51.446;5.404;2023-04-12T06:52:24;1.73;;;1.13;;
13048;SDS011;6591;51.446;5.404;2023-04-12T06:54:52;1.73;;;1.23;;
13048;SDS011;6591;51.446;5.404;2023-04-12T06:57:22;1.40;;;1.30;;
13048;SDS011;6591;51.446;5.404;2023-04-12T06:59:50;1.50;;;1.30;;
13048;SDS011;6591;51.446;5.404;2023-04-12T07:02:17;2.60;;;1.40;;
13048;SDS011;6591;51.446;5.404;2023-04-12T07:04:45;1.30;;;1.20;;
13048;SDS011;6591;51.446;5.404;2023-04-12T07:07:12;1.30;;;1.20;;
13048;SDS011;6591;51.446;5.404;2023-04-12T07:09:39;2.57;;;1.67;;
13048;SDS011;6591;51.446;5.404;2023-04-12T07:12:06;1.83;;;1.30;;
13048;SDS011;6591;51.446;5.404;2023-04-12T07:14:33;2.30;;;1.50;;
13048;SDS011;6591;51.446;5.404;2023-04-12T07:17:00;1.83;;;1.37;;
13048;SDS011;6591;51.446;5.404;2023-04-12T07:19:27;1.97;;;1.20;;
13048;SDS011;6591;51.446;5.404;2023-04-12T07:21:56;3.33;;;1.50;;
13048;SDS011;6591;51.446;5.404;2023-04-12T07:24:23;3.30;;;1.30;;
13048;SDS011;6591;51.446;5.404;2023-04-12T07:26:53;4.10;;;1.30;;
13048;SDS011;6591;51.446;5.404;2023-04-12T07:29:22;2.10;;;1.43;;
13048;SDS011;6591;51.446;5.404;2023-04-12T07:31:49;3.60;;;1.60;;
13048;SDS011;6591;51.446;5.404;2023-04-12T07:34:16;3.33;;;1.50;;
13048;SDS011;6591;51.446;5.404;2023-04-12T07:36:43;2.73;;;1.50;;
13048;SDS011;6591;51.446;5.404;2023-04-12T07:39:10;2.63;;;1.87;;
13048;SDS011;6591;51.446;5.404;2023-04-12T07:41:37;4.00;;;1.90;;
13048;SDS011;6591;51.446;5.404;2023-04-12T07:44:05;2.53;;;1.90;;
13048;SDS011;6591;51.446;5.404;2023-04-12T07:46:32;2.27;;;1.50;;
13048;SDS011;6591;51.446;5.404;2023-04-12T07:48:59;4.27;;;1.77;;
13048;SDS011;6591;51.446;5.404;2023-04-12T07:51:26;2.20;;;1.57;;
13048;SDS011;6591;51.446;5.404;2023-04-12T07:53:56;2.97;;;1.67;;
13048;SDS011;6591;51.446;5.404;2023-04-12T07:56:23;3.37;;;1.80;;
13048;SDS011;6591;51.446;5.404;2023-04-12T07:58:51;3.90;;;1.80;;
13048;SDS011;6591;51.446;5.404;2023-04-12T08:01:17;3.83;;;2.17;;
13048;SDS011;6591;51.446;5.404;2023-04-12T08:03:45;2.23;;;1.60;;
13048;SDS011;6591;51.446;5.404;2023-04-12T08:06:13;3.77;;;1.70;;
13048;SDS011;6591;51.446;5.404;2023-04-12T08:08:40;1.97;;;1.70;;
13048;SDS011;6591;51.446;5.404;2023-04-12T08:11:07;2.23;;;1.80;;
13048;SDS011;6591;51.446;5.404;2023-04-12T08:13:34;3.50;;;1.70;;
13048;SDS011;6591;51.446;5.404;2023-04-12T08:16:01;3.97;;;1.93;;
13048;SDS011;6591;51.446;5.404;2023-04-12T08:18:29;2.73;;;1.87;;
13048;SDS011;6591;51.446;5.404;2023-04-12T08:20:56;2.40;;;1.83;;
13048;SDS011;6591;51.446;5.404;2023-04-12T08:23:24;2.83;;;2.03;;
13048;SDS011;6591;51.446;5.404;2023-04-12T08:25:52;4.17;;;2.27;;
13048;SDS011;6591;51.446;5.404;2023-04-12T08:28:28;2.77;;;2.37;;
13048;SDS011;6591;51.446;5.404;2023-04-12T08:30:56;2.97;;;2.30;;
13048;SDS011;6591;51.446;5.404;2023-04-12T08:33:24;4.17;;;2.57;;
13048;SDS011;6591;51.446;5.404;2023-04-12T08:35:52;4.27;;;2.80;;
13048;SDS011;6591;51.446;5.404;2023-04-12T08:38:19;4.20;;;2.67;;
13048;SDS011;6591;51.446;5.404;2023-04-12T08:41:03;4.33;;;2.60;;
13048;SDS011;6591;51.446;5.404;2023-04-12T08:43:31;4.00;;;2.67;;
13048;SDS011;6591;51.446;5.404;2023-04-12T08:45:59;4.73;;;2.80;;
13048;SDS011;6591;51.446;5.404;2023-04-12T08:48:27;3.20;;;2.50;;
13048;SDS011;6591;51.446;5.404;2023-04-12T08:50:57;3.87;;;2.70;;
13048;SDS011;6591;51.446;5.404;2023-04-12T08:53:26;4.23;;;3.07;;
13048;SDS011;6591;51.446;5.404;2023-04-12T08:55:53;4.60;;;3.13;;
13048;SDS011;6591;51.446;5.404;2023-04-12T08:58:20;5.77;;;3.03;;
13048;SDS011;6591;51.446;5.404;2023-04-12T09:00:48;5.40;;;3.13;;
13048;SDS011;6591;51.446;5.404;2023-04-12T09:03:16;5.67;;;3.60;;
13048;SDS011;6591;51.446;5.404;2023-04-12T09:05:43;8.87;;;3.70;;
13048;SDS011;6591;51.446;5.404;2023-04-12T09:08:10;6.70;;;3.40;;
13048;SDS011;6591;51.446;5.404;2023-04-12T09:10:38;5.83;;;3.63;;
13048;SDS011;6591;51.446;5.404;2023-04-12T09:13:07;6.60;;;4.03;;
13048;SDS011;6591;51.446;5.404;2023-04-12T09:15:34;8.10;;;4.50;;
13048;SDS011;6591;51.446;5.404;2023-04-12T09:20:36;6.27;;;4.03;;
13048;SDS011;6591;51.446;5.404;2023-04-12T09:26:03;7.47;;;4.35;;
13048;SDS011;6591;51.446;5.404;2023-04-12T09:28:31;9.25;;;4.72;;
13048;SDS011;6591;51.446;5.404;2023-04-12T09:30:59;7.63;;;3.90;;
13048;SDS011;6591;51.446;5.404;2023-04-12T09:33:36;9.07;;;4.60;;
13048;SDS011;6591;51.446;5.404;2023-04-12T09:36:07;9.32;;;4.93;;
13048;SDS011;6591;51.446;5.404;2023-04-12T09:38:38;9.80;;;5.57;;
13048;SDS011;6591;51.446;5.404;2023-04-12T09:41:17;8.37;;;5.10;;
13048;SDS011;6591;51.446;5.404;2023-04-12T09:43:52;7.25;;;4.38;;
13048;SDS011;6591;51.446;5.404;2023-04-12T09:46:19;8.65;;;5.00;;
13048;SDS011;6591;51.446;5.404;2023-04-12T09:48:50;8.07;;;4.55;;
13048;SDS011;6591;51.446;5.404;2023-04-12T09:51:24;9.57;;;4.20;;
13048;SDS011;6591;51.446;5.404;2023-04-12T09:53:58;8.20;;;4.25;;
13048;SDS011;6591;51.446;5.404;2023-04-12T09:56:28;9.43;;;3.78;;
13048;SDS011;6591;51.446;5.404;2023-04-12T09:59:01;9.70;;;3.50;;
13048;SDS011;6591;51.446;5.404;2023-04-12T10:01:32;11.55;;;3.80;;
13048;SDS011;6591;51.446;5.404;2023-04-12T10:04:07;9.77;;;3.65;;
13048;SDS011;6591;51.446;5.404;2023-04-12T10:06:35;9.55;;;4.15;;
13048;SDS011;6591;51.446;5.404;2023-04-12T10:09:03;9.63;;;3.60;;
13048;SDS011;6591;51.446;5.404;2023-04-12T10:11:32;11.15;;;3.65;;
13048;SDS011;6591;51.446;5.404;2023-04-12T10:14:02;11.48;;;3.65;;
13048;SDS011;6591;51.446;5.404;2023-04-12T10:16:32;8.98;;;3.75;;
13048;SDS011;6591;51.446;5.404;2023-04-12T10:19:00;9.23;;;3.50;;
13048;SDS011;6591;51.446;5.404;2023-04-12T10:21:29;9.57;;;4.15;;
13048;SDS011;6591;51.446;5.404;2023-04-12T10:23:56;10.67;;;3.90;;
13048;SDS011;6591;51.446;5.404;2023-04-12T10:26:25;9.67;;;3.77;;
13048;SDS011;6591;51.446;5.404;2023-04-12T10:31:54;7.83;;;3.60;;
13048;SDS011;6591;51.446;5.404;2023-04-12T10:34:49;9.93;;;3.83;;
13048;SDS011;6591;51.446;5.404;2023-04-12T10:40:32;10.30;;;2.63;;
13048;SDS011;6591;51.446;5.404;2023-04-12T10:45:47;8.63;;;3.10;;
13048;SDS011;6591;51.446;5.404;2023-04-12T10:48:34;9.57;;;3.37;;
13048;SDS011;6591;51.446;5.404;2023-04-12T10:53:50;10.70;;;3.90;;
13048;SDS011;6591;51.446;5.404;2023-04-12T10:56:37;8.07;;;3.80;;
13048;SDS011;6591;51.446;5.404;2023-04-12T10:59:18;8.27;;;3.77;;
13048;SDS011;6591;51.446;5.404;2023-04-12T11:07:52;7.43;;;3.83;;
13048;SDS011;6591;51.446;5.404;2023-04-12T11:10:38;6.90;;;3.53;;
13048;SDS011;6591;51.446;5.404;2023-04-12T11:13:13;8.30;;;3.17;;
13048;SDS011;6591;51.446;5.404;2023-04-12T11:15:41;10.33;;;3.57;;
13048;SDS011;6591;51.446;5.404;2023-04-12T11:18:11;9.80;;;3.50;;
13048;SDS011;6591;51.446;5.404;2023-04-12T11:20:39;11.03;;;3.60;;
13048;SDS011;6591;51.446;5.404;2023-04-12T11:23:06;9.13;;;3.60;;
13048;SDS011;6591;51.446;5.404;2023-04-12T11:25:36;9.27;;;3.70;;
13048;SDS011;6591;51.446;5.404;2023-04-12T11:28:04;7.97;;;3.50;;
13048;SDS011;6591;51.446;5.404;2023-04-12T11:30:53;6.93;;;3.60;;
13048;SDS011;6591;51.446;5.404;2023-04-12T11:33:31;7.90;;;3.67;;
13048;SDS011;6591;51.446;5.404;2023-04-12T11:36:09;6.67;;;3.10;;
13048;SDS011;6591;51.446;5.404;2023-04-12T11:38:38;10.00;;;3.30;;
13048;SDS011;6591;51.446;5.404;2023-04-12T11:41:06;4.93;;;2.60;;
13048;SDS011;6591;51.446;5.404;2023-04-12T11:43:34;8.47;;;3.13;;
13048;SDS011;6591;51.446;5.404;2023-04-12T11:46:04;7.30;;;2.57;;
13048;SDS011;6591;51.446;5.404;2023-04-12T11:48:32;9.23;;;3.10;;
13048;SDS011;6591;51.446;5.404;2023-04-12T11:50:59;5.03;;;2.40;;
13048;SDS011;6591;51.446;5.404;2023-04-12T11:53:36;7.40;;;2.83;;
13048;SDS011;6591;51.446;5.404;2023-04-12T11:56:04;7.03;;;2.73;;
13048;SDS011;6591;51.446;5.404;2023-04-12T11:58:31;6.00;;;2.67;;
13048;SDS011;6591;51.446;5.404;2023-04-12T12:00:58;5.47;;;2.63;;
13048;SDS011;6591;51.446;5.404;2023-04-12T12:03:26;8.77;;;2.83;;
13048;SDS011;6591;51.446;5.404;2023-04-12T12:05:54;9.00;;;3.17;;
13048;SDS011;6591;51.446;5.404;2023-04-12T12:08:22;10.53;;;3.97;;
13048;SDS011;6591;51.446;5.404;2023-04-12T12:10:50;12.03;;;4.07;;
13048;SDS011;6591;51.446;5.404;2023-04-12T12:13:51;8.47;;;3.10;;
13048;SDS011;6591;51.446;5.404;2023-04-12T12:16:27;6.33;;;3.10;;
13048;SDS011;6591;51.446;5.404;2023-04-12T12:18:55;5.77;;;3.30;;
13048;SDS011;6591;51.446;5.404;2023-04-12T12:21:23;7.90;;;2.53;;
13048;SDS011;6591;51.446;5.404;2023-04-12T12:23:52;8.03;;;3.10;;
13048;SDS011;6591;51.446;5.404;2023-04-12T12:26:20;6.90;;;3.00;;
13048;SDS011;6591;51.446;5.404;2023-04-12T12:28:50;7.20;;;2.63;;
13048;SDS011;6591;51.446;5.404;2023-04-12T12:31:21;5.57;;;2.60;;
13048;SDS011;6591;51.446;5.404;2023-04-12T12:33:57;7.23;;;3.40;;
13048;SDS011;6591;51.446;5.404;2023-04-12T12:36:30;6.03;;;3.10;;
13048;SDS011;6591;51.446;5.404;2023-04-12T12:39:03;11.37;;;3.20;;
13048;SDS011;6591;51.446;5.404;2023-04-12T12:41:38;6.63;;;3.03;;
13048;SDS011;6591;51.446;5.404;2023-04-12T12:44:05;6.83;;;3.30;;
13048;SDS011;6591;51.446;5.404;2023-04-12T12:46:33;9.27;;;3.47;;
13048;SDS011;6591;51.446;5.404;2023-04-12T12:49:04;5.50;;;2.77;;
13048;SDS011;6591;51.446;5.404;2023-04-12T12:51:31;7.20;;;2.97;;
13048;SDS011;6591;51.446;5.404;2023-04-12T12:53:58;8.87;;;3.20;;
13048;SDS011;6591;51.446;5.404;2023-04-12T12:56:26;6.80;;;3.33;;
13048;SDS011;6591;51.446;5.404;2023-04-12T12:58:53;6.97;;;2.93;;
13048;SDS011;6591;51.446;5.404;2023-04-12T13:01:20;6.33;;;2.73;;
13048;SDS011;6591;51.446;5.404;2023-04-12T13:03:47;7.83;;;3.13;;
13048;SDS011;6591;51.446;5.404;2023-04-12T13:06:14;4.67;;;2.50;;
13048;SDS011;6591;51.446;5.404;2023-04-12T13:08:41;7.20;;;2.60;;
13048;SDS011;6591;51.446;5.404;2023-04-12T13:11:08;5.33;;;2.53;;
13048;SDS011;6591;51.446;5.404;2023-04-12T13:13:35;7.77;;;2.90;;
13048;SDS011;6591;51.446;5.404;2023-04-12T13:16:02;6.00;;;2.73;;
13048;SDS011;6591;51.446;5.404;2023-04-12T13:18:29;8.20;;;3.50;;
13048;SDS011;6591;51.446;5.404;2023-04-12T13:20:56;7.13;;;3.50;;
13048;SDS011;6591;51.446;5.404;2023-04-12T13:23:23;5.93;;;2.50;;
13048;SDS011;6591;51.446;5.404;2023-04-12T13:25:50;3.53;;;1.80;;
13048;SDS011;6591;51.446;5.404;2023-04-12T13:28:18;3.80;;;1.80;;
13048;SDS011;6591;51.446;5.404;2023-04-12T13:30:46;4.57;;;1.63;;
13048;SDS011;6591;51.446;5.404;2023-04-12T13:33:14;3.40;;;1.40;;
13048;SDS011;6591;51.446;5.404;2023-04-12T13:35:46;2.27;;;1.30;;
13048;SDS011;6591;51.446;5.404;2023-04-12T13:38:13;3.27;;;1.47;;
13048;SDS011;6591;51.446;5.404;2023-04-12T13:40:40;1.97;;;1.40;;
13048;SDS011;6591;51.446;5.404;2023-04-12T13:43:07;2.90;;;1.57;;
13048;SDS011;6591;51.446;5.404;2023-04-12T13:45:34;2.00;;;1.47;;
13048;SDS011;6591;51.446;5.404;2023-04-12T13:48:02;2.70;;;1.40;;
13048;SDS011;6591;51.446;5.404;2023-04-12T13:50:29;2.73;;;1.70;;
13048;SDS011;6591;51.446;5.404;2023-04-12T13:52:56;2.00;;;1.37;;
13048;SDS011;6591;51.446;5.404;2023-04-12T13:55:24;3.07;;;1.40;;
13048;SDS011;6591;51.446;5.404;2023-04-12T13:57:51;3.23;;;1.60;;
13048;SDS011;6591;51.446;5.404;2023-04-12T14:00:18;2.33;;;1.67;;
13048;SDS011;6591;51.446;5.404;2023-04-12T14:02:46;2.87;;;1.80;;
13048;SDS011;6591;51.446;5.404;2023-04-12T14:05:13;4.43;;;1.93;;
13048;SDS011;6591;51.446;5.404;2023-04-12T14:07:41;3.97;;;2.10;;
13048;SDS011;6591;51.446;5.404;2023-04-12T14:10:08;2.73;;;1.77;;
13048;SDS011;6591;51.446;5.404;2023-04-12T14:12:35;2.83;;;2.20;;
13048;SDS011;6591;51.446;5.404;2023-04-12T14:15:03;2.90;;;1.70;;
13048;SDS011;6591;51.446;5.404;2023-04-12T14:17:31;1.87;;;1.60;;
13048;SDS011;6591;51.446;5.404;2023-04-12T14:19:58;2.23;;;1.80;;
13048;SDS011;6591;51.446;5.404;2023-04-12T14:22:26;3.07;;;1.53;;
13048;SDS011;6591;51.446;5.404;2023-04-12T14:24:53;2.63;;;1.47;;
13048;SDS011;6591;51.446;5.404;2023-04-12T14:27:20;1.50;;;1.40;;
13048;SDS011;6591;51.446;5.404;2023-04-12T14:29:47;3.10;;;1.20;;
13048;SDS011;6591;51.446;5.404;2023-04-12T14:32:14;4.13;;;1.47;;
13048;SDS011;6591;51.446;5.404;2023-04-12T14:34:42;1.40;;;1.07;;
13048;SDS011;6591;51.446;5.404;2023-04-12T14:37:09;2.40;;;1.40;;
13048;SDS011;6591;51.446;5.404;2023-04-12T14:39:36;2.43;;;1.20;;
13048;SDS011;6591;51.446;5.404;2023-04-12T14:42:04;2.93;;;0.90;;
13048;SDS011;6591;51.446;5.404;2023-04-12T14:44:31;1.53;;;1.20;;
13048;SDS011;6591;51.446;5.404;2023-04-12T14:46:58;2.23;;;1.17;;
13048;SDS011;6591;51.446;5.404;2023-04-12T14:49:26;1.20;;;1.10;;
13048;SDS011;6591;51.446;5.404;2023-04-12T14:51:56;1.30;;;1.10;;
13048;SDS011;6591;51.446;5.404;2023-04-12T14:54:22;1.13;;;1.03;;
13048;SDS011;6591;51.446;5.404;2023-04-12T14:56:49;1.20;;;1.10;;
13048;SDS011;6591;51.446;5.404;2023-04-12T14:59:22;1.37;;;0.87;;
13048;SDS011;6591;51.446;5.404;2023-04-12T15:01:49;1.57;;;1.00;;
13048;SDS011;6591;51.446;5.404;2023-04-12T15:04:18;1.20;;;1.07;;
13048;SDS011;6591;51.446;5.404;2023-04-12T15:06:45;1.10;;;0.80;;
13048;SDS011;6591;51.446;5.404;2023-04-12T15:09:12;1.33;;;0.90;;
13048;SDS011;6591;51.446;5.404;2023-04-12T15:11:41;1.47;;;0.90;;
13048;SDS011;6591;51.446;5.404;2023-04-12T15:14:12;1.40;;;1.00;;
13048;SDS011;6591;51.446;5.404;2023-04-12T15:16:43;1.00;;;0.77;;
13048;SDS011;6591;51.446;5.404;2023-04-12T15:19:12;0.80;;;0.80;;
13048;SDS011;6591;51.446;5.404;2023-04-12T15:21:48;1.70;;;1.00;;
13048;SDS011;6591;51.446;5.404;2023-04-12T15:24:18;1.07;;;0.90;;
13048;SDS011;6591;51.446;5.404;2023-04-12T15:26:46;1.00;;;0.90;;
13048;SDS011;6591;51.446;5.404;2023-04-12T15:29:16;0.90;;;0.90;;
13048;SDS011;6591;51.446;5.404;2023-04-12T15:31:46;2.27;;;1.30;;
13048;SDS011;6591;51.446;5.404;2023-04-12T15:34:13;1.97;;;1.03;;
13048;SDS011;6591;51.446;5.404;2023-04-12T15:36:40;3.10;;;1.30;;
13048;SDS011;6591;51.446;5.404;2023-04-12T15:39:11;5.40;;;1.70;;
13048;SDS011;6591;51.446;5.404;2023-04-12T15:41:40;2.13;;;1.47;;
13048;SDS011;6591;51.446;5.404;2023-04-12T15:44:08;2.23;;;1.73;;
13048;SDS011;6591;51.446;5.404;2023-04-12T15:46:39;2.50;;;1.63;;
13048;SDS011;6591;51.446;5.404;2023-04-12T15:49:08;2.00;;;1.48;;
13048;SDS011;6591;51.446;5.404;2023-04-12T15:51:36;2.38;;;1.60;;
13048;SDS011;6591;51.446;5.404;2023-04-12T15:54:03;2.80;;;1.58;;
13048;SDS011;6591;51.446;5.404;2023-04-12T15:56:31;2.95;;;1.60;;